createdAt,value
2019-05-01T00:00:35.981Z,1009.84
2019-05-01T00:01:35.999Z,1009.78
2019-05-01T00:03:36.040Z,1009.7
2019-05-01T00:04:36.057Z,1009.73
2019-05-01T00:05:36.077Z,1009.78
2019-05-01T00:06:36.098Z,1009.75
2019-05-01T00:07:36.117Z,1009.86
2019-05-01T00:08:36.139Z,1009.84
2019-05-01T00:09:36.157Z,1009.83
2019-05-01T00:10:36.178Z,1009.79
2019-05-01T00:11:36.197Z,1009.8
2019-05-01T00:12:36.218Z,1009.75
2019-05-01T00:13:36.238Z,1009.72
2019-05-01T00:14:36.258Z,1009.71
2019-05-01T00:15:36.279Z,1009.67
2019-05-01T00:16:36.299Z,1009.69
2019-05-01T00:17:36.322Z,1009.66
2019-05-01T00:19:36.358Z,1009.71
2019-05-01T00:20:36.379Z,1009.68
2019-05-01T00:21:36.399Z,1009.71
2019-05-01T00:22:36.419Z,1009.67
2019-05-01T00:23:36.438Z,1009.64
2019-05-01T00:24:36.459Z,1009.64
2019-05-01T00:25:36.480Z,1009.62
2019-05-01T00:26:36.499Z,1009.62
2019-05-01T00:27:36.521Z,1009.64
2019-05-01T00:28:36.540Z,1009.59
2019-05-01T00:29:36.560Z,1009.59
2019-05-01T00:30:36.580Z,1009.62
2019-05-01T00:31:36.600Z,1009.6
2019-05-01T00:32:36.620Z,1009.59
2019-05-01T00:33:36.643Z,1009.59
2019-05-01T00:35:36.680Z,1009.56
2019-05-01T00:36:36.700Z,1009.52
2019-05-01T00:37:36.726Z,1009.54
2019-05-01T00:38:36.741Z,1009.51
2019-05-01T00:39:36.761Z,1009.52
2019-05-01T00:40:36.781Z,1009.48
2019-05-01T00:41:36.801Z,1009.52
2019-05-01T00:42:36.821Z,1009.48
2019-05-01T00:43:36.842Z,1009.51
2019-05-01T00:44:36.862Z,1009.49
2019-05-01T00:45:36.882Z,1009.42
2019-05-01T00:46:37.002Z,1009.38
2019-05-01T00:47:36.955Z,1009.41
2019-05-01T00:48:36.943Z,1009.37
2019-05-01T00:50:36.985Z,1009.33
2019-05-01T00:51:37.003Z,1009.34
2019-05-01T00:52:37.024Z,1009.3
2019-05-01T00:53:37.043Z,1009.29
2019-05-01T00:54:37.063Z,1009.32
2019-05-01T00:55:37.083Z,1009.29
2019-05-01T00:56:37.104Z,1009.27
2019-05-01T00:57:37.124Z,1009.27
2019-05-01T00:58:37.144Z,1009.27
2019-05-01T00:59:37.164Z,1009.3
2019-05-01T01:00:43.000Z,1009.26
2019-05-01T01:01:37.205Z,1009.25
2019-05-01T01:02:37.224Z,1009.24
2019-05-01T01:03:37.244Z,1009.23
2019-05-01T01:04:37.266Z,1009.23
2019-05-01T01:05:37.285Z,1009.21
2019-05-01T01:06:37.305Z,1009.18
2019-05-01T01:07:37.324Z,1009.23
2019-05-01T01:08:37.345Z,1009.22
2019-05-01T01:09:37.365Z,1009.21
2019-05-01T01:10:37.385Z,1009.2
2019-05-01T01:11:37.406Z,1009.19
2019-05-01T01:12:37.426Z,1009.15
2019-05-01T01:13:37.445Z,1009.17
2019-05-01T01:14:37.465Z,1009.19
2019-05-01T01:15:37.486Z,1009.14
2019-05-01T01:16:37.509Z,1009.13
2019-05-01T01:17:37.530Z,1009.15
2019-05-01T01:18:37.546Z,1009.11
2019-05-01T01:19:37.567Z,1009.09
2019-05-01T01:20:37.586Z,1009.06
2019-05-01T01:22:37.627Z,1009.04
2019-05-01T01:23:37.647Z,1009.04
2019-05-01T01:24:37.667Z,1009.07
2019-05-01T01:25:37.687Z,1009.07
2019-05-01T01:26:37.710Z,1009.04
2019-05-01T01:27:37.731Z,1009.05
2019-05-01T01:28:37.750Z,1009.05
2019-05-01T01:29:37.768Z,1009.05
2019-05-01T01:30:37.788Z,1009.02
2019-05-01T01:31:37.807Z,1009.01
2019-05-01T01:32:37.828Z,1009.02
2019-05-01T01:33:37.849Z,1008.99
2019-05-01T01:34:37.868Z,1008.98
2019-05-01T01:35:37.888Z,1008.96
2019-05-01T01:36:37.912Z,1008.97
2019-05-01T01:38:37.949Z,1008.94
2019-05-01T01:39:37.968Z,1008.91
2019-05-01T01:40:37.989Z,1008.95
2019-05-01T01:41:38.010Z,1008.91
2019-05-01T01:42:38.029Z,1008.92
2019-05-01T01:43:38.049Z,1008.85
2019-05-01T01:44:38.069Z,1008.85
2019-05-01T01:45:38.090Z,1008.83
2019-05-01T01:46:38.112Z,1008.84
2019-05-01T01:47:38.129Z,1008.88
2019-05-01T01:48:38.150Z,1008.83
2019-05-01T01:49:38.170Z,1008.85
2019-05-01T01:50:38.189Z,1008.84
2019-05-01T01:51:38.210Z,1008.83
2019-05-01T01:52:38.231Z,1008.84
2019-05-01T01:54:38.270Z,1008.79
2019-05-01T01:55:38.290Z,1008.8
2019-05-01T01:56:38.310Z,1008.78
2019-05-01T01:57:38.330Z,1008.8
2019-05-01T01:58:38.350Z,1008.75
2019-05-01T01:59:38.370Z,1008.74
2019-05-01T02:00:38.400Z,1008.71
2019-05-01T02:01:38.410Z,1008.7
2019-05-01T02:02:38.430Z,1008.66
2019-05-01T02:03:38.450Z,1008.7
2019-05-01T02:04:38.469Z,1008.67
2019-05-01T02:05:38.490Z,1008.67
2019-05-01T02:06:38.510Z,1008.63
2019-05-01T02:07:38.531Z,1008.66
2019-05-01T02:08:38.550Z,1008.63
2019-05-01T02:10:42.736Z,1008.64
2019-05-01T02:11:38.611Z,1008.61
2019-05-01T02:12:38.629Z,1008.61
2019-05-01T02:13:38.650Z,1008.59
2019-05-01T02:14:38.671Z,1008.59
2019-05-01T02:15:38.689Z,1008.56
2019-05-01T02:16:38.709Z,1008.54
2019-05-01T02:17:38.730Z,1008.52
2019-05-01T02:18:38.750Z,1008.56
2019-05-01T02:19:38.769Z,1008.55
2019-05-01T02:20:38.790Z,1008.55
2019-05-01T02:21:38.809Z,1008.57
2019-05-01T02:22:38.845Z,1008.59
2019-05-01T02:23:38.851Z,1008.55
2019-05-01T02:25:38.891Z,1008.49
2019-05-01T02:26:38.912Z,1008.52
2019-05-01T02:27:38.930Z,1008.47
2019-05-01T02:28:38.954Z,1008.48
2019-05-01T02:29:38.971Z,1008.48
2019-05-01T02:30:38.991Z,1008.46
2019-05-01T02:31:39.010Z,1008.45
2019-05-01T02:32:39.030Z,1008.44
2019-05-01T02:33:39.049Z,1008.45
2019-05-01T02:34:39.070Z,1008.45
2019-05-01T02:35:39.092Z,1008.42
2019-05-01T02:36:39.111Z,1008.44
2019-05-01T02:37:39.131Z,1008.46
2019-05-01T02:38:39.150Z,1008.46
2019-05-01T02:39:39.170Z,1008.46
2019-05-01T02:40:39.190Z,1008.48
2019-05-01T02:41:41.427Z,1008.41
2019-05-01T02:42:39.230Z,1008.45
2019-05-01T02:43:39.251Z,1008.48
2019-05-01T02:44:39.269Z,1008.44
2019-05-01T02:45:39.289Z,1008.45
2019-05-01T02:46:39.309Z,1008.41
2019-05-01T02:47:39.335Z,1008.43
2019-05-01T02:48:39.349Z,1008.43
2019-05-01T02:49:39.369Z,1008.41
2019-05-01T02:50:39.389Z,1008.41
2019-05-01T02:51:39.412Z,1008.36
2019-05-01T02:52:39.429Z,1008.33
2019-05-01T02:53:39.449Z,1008.3
2019-05-01T02:54:39.469Z,1008.27
2019-05-01T02:55:39.488Z,1008.27
2019-05-01T02:57:39.532Z,1008.34
2019-05-01T02:58:39.567Z,1008.26
2019-05-01T02:59:39.569Z,1008.3
2019-05-01T03:00:39.589Z,1008.33
2019-05-01T03:01:46.825Z,1008.29
2019-05-01T03:02:39.645Z,1008.29
2019-05-01T03:03:39.649Z,1008.27
2019-05-01T03:04:39.668Z,1008.27
2019-05-01T03:05:39.688Z,1008.26
2019-05-01T03:06:39.708Z,1008.23
2019-05-01T03:07:39.727Z,1008.2
2019-05-01T03:08:39.749Z,1008.19
2019-05-01T03:09:39.768Z,1008.17
2019-05-01T03:10:39.787Z,1008.2
2019-05-01T03:11:39.840Z,1008.2
2019-05-01T03:13:39.849Z,1008.17
2019-05-01T03:14:39.867Z,1008.14
2019-05-01T03:15:39.895Z,1008.15
2019-05-01T03:16:39.907Z,1008.14
2019-05-01T03:17:39.926Z,1008.14
2019-05-01T03:18:39.946Z,1008.13
2019-05-01T03:19:39.973Z,1008.15
2019-05-01T03:20:39.987Z,1008.13
2019-05-01T03:21:40.006Z,1008.14
2019-05-01T03:22:40.026Z,1008.11
2019-05-01T03:23:40.047Z,1008.1
2019-05-01T03:24:40.066Z,1008.06
2019-05-01T03:25:40.086Z,1008.06
2019-05-01T03:26:40.112Z,1008.04
2019-05-01T03:27:40.131Z,1008.02
2019-05-01T03:29:40.166Z,1008.04
2019-05-01T03:30:40.189Z,1008.04
2019-05-01T03:31:40.206Z,1008.02
2019-05-01T03:32:40.225Z,1008.06
2019-05-01T03:33:40.245Z,1008.06
2019-05-01T03:34:40.272Z,1008.03
2019-05-01T03:35:40.285Z,1008.09
2019-05-01T03:36:40.306Z,1008.12
2019-05-01T03:37:40.325Z,1008.12
2019-05-01T03:38:40.349Z,1008.11
2019-05-01T03:39:40.364Z,1008.1
2019-05-01T03:40:40.385Z,1008.06
2019-05-01T03:41:40.505Z,1008.1
2019-05-01T03:42:40.427Z,1008.1
2019-05-01T03:43:40.448Z,1008.06
2019-05-01T03:45:40.483Z,1008.03
2019-05-01T03:46:40.505Z,1008.03
2019-05-01T03:47:40.525Z,1008.08
2019-05-01T03:48:40.546Z,1008.07
2019-05-01T03:49:40.564Z,1008.09
2019-05-01T03:50:40.583Z,1008.05
2019-05-01T03:51:40.609Z,1008.06
2019-05-01T03:52:40.623Z,1008.02
2019-05-01T03:53:40.644Z,1008.06
2019-05-01T03:54:40.663Z,1008.04
2019-05-01T03:55:40.682Z,1008.06
2019-05-01T03:56:40.702Z,1008.1
2019-05-01T03:57:40.721Z,1008.14
2019-05-01T03:58:40.744Z,1008.06
2019-05-01T04:00:40.790Z,1008.02
2019-05-01T04:01:40.801Z,1008.05
2019-05-01T04:02:40.821Z,1008.08
2019-05-01T04:03:40.841Z,1008.06
2019-05-01T04:04:40.866Z,1008.02
2019-05-01T04:05:40.889Z,1008.05
2019-05-01T04:06:40.912Z,1008.05
2019-05-01T04:07:40.927Z,1008.12
2019-05-01T04:08:40.940Z,1008.15
2019-05-01T04:09:40.964Z,1008.16
2019-05-01T04:10:40.985Z,1008.17
2019-05-01T04:11:41.002Z,1008.09
2019-05-01T04:12:41.123Z,1008.16
2019-05-01T04:13:41.040Z,1008.16
2019-05-01T04:14:41.063Z,1008.1
2019-05-01T04:15:41.084Z,1008.13
2019-05-01T04:16:41.103Z,1008.14
2019-05-01T04:17:41.122Z,1008.13
2019-05-01T04:18:41.141Z,1008.13
2019-05-01T04:19:41.165Z,1008.07
2019-05-01T04:20:41.183Z,1008.16
2019-05-01T04:21:41.201Z,1008.18
2019-05-01T04:22:41.219Z,1008.16
2019-05-01T04:23:41.240Z,1008.13
2019-05-01T04:24:41.258Z,1008.15
2019-05-01T04:25:41.277Z,1008.1
2019-05-01T04:26:41.298Z,1008.23
2019-05-01T04:27:41.317Z,1008.18
2019-05-01T04:28:41.338Z,1008.18
2019-05-01T04:29:41.357Z,1008.17
2019-05-01T04:30:41.375Z,1008.15
2019-05-01T04:32:51.514Z,1008.16
2019-05-01T04:33:41.436Z,1008.17
2019-05-01T04:34:41.456Z,1008.12
2019-05-01T04:35:41.475Z,1008.18
2019-05-01T04:36:41.496Z,1008.18
2019-05-01T04:37:41.517Z,1008.17
2019-05-01T04:38:41.535Z,1008.15
2019-05-01T04:39:41.554Z,1008.18
2019-05-01T04:40:41.574Z,1008.21
2019-05-01T04:41:41.593Z,1008.19
2019-05-01T04:42:41.614Z,1008.19
2019-05-01T04:43:41.637Z,1008.17
2019-05-01T04:44:41.654Z,1008.23
2019-05-01T04:45:41.672Z,1008.2
2019-05-01T04:46:41.692Z,1008.2
2019-05-01T04:48:41.732Z,1008.18
2019-05-01T04:49:41.751Z,1008.2
2019-05-01T04:50:41.771Z,1008.15
2019-05-01T04:51:41.791Z,1008.15
2019-05-01T04:52:41.811Z,1008.15
2019-05-01T04:53:41.829Z,1008.16
2019-05-01T04:54:41.853Z,1008.18
2019-05-01T04:55:41.869Z,1008.19
2019-05-01T04:56:41.889Z,1008.22
2019-05-01T04:57:41.908Z,1008.25
2019-05-01T04:58:41.929Z,1008.24
2019-05-01T04:59:42.051Z,1008.24
2019-05-01T05:00:41.968Z,1008.23
2019-05-01T05:01:41.987Z,1008.24
2019-05-01T05:02:42.007Z,1008.27
2019-05-01T05:04:42.046Z,1008.27
2019-05-01T05:05:42.066Z,1008.31
2019-05-01T05:06:42.087Z,1008.31
2019-05-01T05:07:42.105Z,1008.32
2019-05-01T05:08:42.125Z,1008.31
2019-05-01T05:09:42.145Z,1008.35
2019-05-01T05:10:42.165Z,1008.38
2019-05-01T05:11:42.184Z,1008.38
2019-05-01T05:12:42.204Z,1008.36
2019-05-01T05:13:42.224Z,1008.43
2019-05-01T05:14:42.244Z,1008.39
2019-05-01T05:15:42.270Z,1008.43
2019-05-01T05:16:42.284Z,1008.35
2019-05-01T05:17:42.305Z,1008.41
2019-05-01T05:18:42.324Z,1008.43
2019-05-01T05:20:42.365Z,1008.45
2019-05-01T05:21:42.386Z,1008.44
2019-05-01T05:22:42.403Z,1008.39
2019-05-01T05:23:42.424Z,1008.39
2019-05-01T05:24:42.443Z,1008.38
2019-05-01T05:25:42.463Z,1008.39
2019-05-01T05:26:42.484Z,1008.37
2019-05-01T05:27:42.504Z,1008.37
2019-05-01T05:28:42.524Z,1008.37
2019-05-01T05:29:42.543Z,1008.4
2019-05-01T05:30:42.564Z,1008.42
2019-05-01T05:31:42.584Z,1008.41
2019-05-01T05:32:42.604Z,1008.42
2019-05-01T05:33:42.625Z,1008.53
2019-05-01T05:35:42.666Z,1008.44
2019-05-01T05:36:42.685Z,1008.43
2019-05-01T05:37:42.709Z,1008.41
2019-05-01T05:38:42.728Z,1008.42
2019-05-01T05:39:42.747Z,1008.43
2019-05-01T05:40:42.767Z,1008.46
2019-05-01T05:41:42.788Z,1008.51
2019-05-01T05:42:42.809Z,1008.67
2019-05-01T05:43:42.829Z,1008.49
2019-05-01T05:44:42.849Z,1008.5
2019-05-01T05:45:42.871Z,1008.47
2019-05-01T05:46:42.892Z,1008.5
2019-05-01T05:47:42.912Z,1008.49
2019-05-01T05:48:42.934Z,1008.4
2019-05-01T05:49:42.955Z,1008.71
2019-05-01T05:50:42.976Z,1008.64
2019-05-01T05:51:42.997Z,1008.46
2019-05-01T05:52:43.018Z,1008.89
2019-05-01T05:53:43.041Z,1008.94
2019-05-01T05:54:43.064Z,1008.93
2019-05-01T05:55:43.084Z,1008.91
2019-05-01T05:56:43.108Z,1008.69
2019-05-01T05:57:43.131Z,1008.63
2019-05-01T05:58:43.162Z,1008.88
2019-05-01T05:59:43.176Z,1008.46
2019-05-01T06:00:43.199Z,1008.43
2019-05-01T06:01:43.227Z,1008.51
2019-05-01T06:02:43.245Z,1008.47
2019-05-01T06:03:43.269Z,1008.48
2019-05-01T06:04:43.293Z,1008.57
2019-05-01T06:05:43.315Z,1008.52
2019-05-01T06:07:43.362Z,1008.5
2019-05-01T06:08:43.385Z,1008.5
2019-05-01T06:09:44.471Z,1008.48
2019-05-01T06:10:43.430Z,1008.52
2019-05-01T06:11:43.453Z,1008.53
2019-05-01T06:12:46.669Z,1008.5
2019-05-01T06:13:43.498Z,1008.46
2019-05-01T06:14:43.523Z,1008.49
2019-05-01T06:15:43.543Z,1008.47
2019-05-01T06:16:46.732Z,1008.47
2019-05-01T06:17:43.588Z,1008.44
2019-05-01T06:18:43.611Z,1008.52
2019-05-01T06:19:45.755Z,1008.44
2019-05-01T06:20:43.654Z,1008.42
2019-05-01T06:21:43.677Z,1008.47
2019-05-01T06:23:43.721Z,1008.48
2019-05-01T06:24:43.742Z,1008.53
2019-05-01T06:25:43.768Z,1008.49
2019-05-01T06:26:43.786Z,1008.49
2019-05-01T06:27:44.715Z,1008.49
2019-05-01T06:28:43.829Z,1008.4
2019-05-01T06:29:43.853Z,1008.44
2019-05-01T06:30:46.994Z,1008.48
2019-05-01T06:31:43.894Z,1008.51
2019-05-01T06:32:43.916Z,1008.43
2019-05-01T06:33:44.521Z,1008.42
2019-05-01T06:34:43.958Z,1008.4
2019-05-01T06:35:43.982Z,1008.45
2019-05-01T06:36:48.927Z,1008.38
2019-05-01T06:37:44.023Z,1008.44
2019-05-01T06:39:47.825Z,1008.64
2019-05-01T06:40:44.087Z,1009.27
2019-05-01T06:41:44.124Z,1008.67
2019-05-01T06:42:45.634Z,1008.6
2019-05-01T06:43:44.152Z,1008.5
2019-05-01T06:44:44.428Z,1008.49
2019-05-01T06:45:46.797Z,1008.5
2019-05-01T06:46:44.218Z,1008.44
2019-05-01T06:47:44.323Z,1008.43
2019-05-01T06:48:44.261Z,1008.5
2019-05-01T06:49:44.282Z,1008.47
2019-05-01T06:50:44.305Z,1008.47
2019-05-01T06:51:47.898Z,1008.52
2019-05-01T06:52:44.351Z,1008.48
2019-05-01T06:53:44.369Z,1008.47
2019-05-01T06:55:44.416Z,1008.49
2019-05-01T06:56:44.437Z,1008.51
2019-05-01T06:57:45.636Z,1008.52
2019-05-01T06:58:44.479Z,1008.49
2019-05-01T06:59:44.500Z,1008.47
2019-05-01T07:00:44.520Z,1008.47
2019-05-01T07:01:44.544Z,1008.45
2019-05-01T07:02:44.564Z,1008.45
2019-05-01T07:03:45.723Z,1008.44
2019-05-01T07:04:44.606Z,1008.46
2019-05-01T07:05:44.773Z,1008.5
2019-05-01T07:06:44.650Z,1008.53
2019-05-01T07:07:47.973Z,1008.53
2019-05-01T07:08:44.693Z,1008.56
2019-05-01T07:10:45.892Z,1008.56
2019-05-01T07:11:47.352Z,1008.5
2019-05-01T07:12:44.779Z,1008.53
2019-05-01T07:13:44.800Z,1008.5
2019-05-01T07:14:46.998Z,1008.46
2019-05-01T07:15:44.842Z,1008.54
2019-05-01T07:16:44.863Z,1008.55
2019-05-01T07:17:47.708Z,1008.61
2019-05-01T07:18:44.905Z,1008.55
2019-05-01T07:19:44.927Z,1008.56
2019-05-01T07:20:47.211Z,1008.57
2019-05-01T07:21:44.974Z,1008.53
2019-05-01T07:22:44.991Z,1008.52
2019-05-01T07:23:47.713Z,1008.5
2019-05-01T07:24:45.032Z,1008.55
2019-05-01T07:25:45.054Z,1008.57
2019-05-01T07:26:47.945Z,1008.65
2019-05-01T07:27:45.095Z,1008.64
2019-05-01T07:28:45.117Z,1008.71
2019-05-01T07:29:46.640Z,1008.66
2019-05-01T07:30:45.158Z,1008.67
2019-05-01T07:31:45.180Z,1008.68
2019-05-01T07:32:45.205Z,1008.66
2019-05-01T07:33:46.923Z,1008.63
2019-05-01T07:34:45.242Z,1008.55
2019-05-01T07:35:45.263Z,1008.64
2019-05-01T07:36:45.544Z,1008.67
2019-05-01T07:37:45.305Z,1008.6
2019-05-01T07:38:45.326Z,1008.62
2019-05-01T07:39:49.790Z,1008.62
2019-05-01T07:40:45.368Z,1008.59
2019-05-01T07:42:48.168Z,1008.64
2019-05-01T07:43:45.432Z,1008.62
2019-05-01T07:44:45.455Z,1008.63
2019-05-01T07:45:45.490Z,1008.62
2019-05-01T07:46:48.767Z,1008.62
2019-05-01T07:47:45.517Z,1008.65
2019-05-01T07:48:45.538Z,1008.72
2019-05-01T07:49:47.750Z,1008.65
2019-05-01T07:50:45.580Z,1008.67
2019-05-01T07:51:45.602Z,1008.67
2019-05-01T07:52:47.603Z,1008.7
2019-05-01T07:53:45.647Z,1008.67
2019-05-01T07:54:47.094Z,1008.67
2019-05-01T07:55:48.544Z,1008.73
2019-05-01T07:56:45.708Z,1008.72
2019-05-01T07:58:47.403Z,1008.73
2019-05-01T07:59:45.772Z,1008.72
2019-05-01T08:00:45.794Z,1008.83
2019-05-01T08:01:49.778Z,1008.78
2019-05-01T08:02:45.836Z,1008.8
2019-05-01T08:03:45.858Z,1008.77
2019-05-01T08:04:45.882Z,1008.82
2019-05-01T08:05:46.762Z,1008.86
2019-05-01T08:06:45.922Z,1009.03
2019-05-01T08:07:45.944Z,1008.81
2019-05-01T08:08:45.966Z,1008.93
2019-05-01T08:09:50.174Z,1008.8
2019-05-01T08:10:46.009Z,1008.81
2019-05-01T08:11:46.035Z,1008.78
2019-05-01T08:12:46.054Z,1008.81
2019-05-01T08:14:47.672Z,1009.04
2019-05-01T08:15:46.121Z,1009.01
2019-05-01T08:16:46.244Z,1009.11
2019-05-01T08:17:48.676Z,1009.07
2019-05-01T08:18:46.189Z,1009.12
2019-05-01T08:19:46.213Z,1009.2
2019-05-01T08:20:50.304Z,1009.13
2019-05-01T08:21:46.259Z,1009.03
2019-05-01T08:22:46.282Z,1009.26
2019-05-01T08:23:47.063Z,1009.35
2019-05-01T08:24:46.330Z,1008.95
2019-05-01T08:25:46.355Z,1008.87
2019-05-01T08:26:46.386Z,1008.85
2019-05-01T08:27:46.404Z,1008.75
2019-05-01T08:28:46.428Z,1008.74
2019-05-01T08:30:47.915Z,1008.78
2019-05-01T08:31:46.502Z,1008.89
2019-05-01T08:32:46.527Z,1009
2019-05-01T08:33:49.730Z,1008.88
2019-05-01T08:34:48.919Z,1008.82
2019-05-01T08:35:46.602Z,1008.83
2019-05-01T08:36:47.147Z,1008.84
2019-05-01T08:37:46.648Z,1008.9
2019-05-01T08:38:46.673Z,1008.86
2019-05-01T08:39:46.697Z,1008.87
2019-05-01T08:40:50.647Z,1008.97
2019-05-01T08:41:46.746Z,1008.82
2019-05-01T08:42:46.770Z,1008.85
2019-05-01T08:43:48.835Z,1008.81
2019-05-01T08:45:46.845Z,1008.78
2019-05-01T08:46:50.845Z,1008.77
2019-05-01T08:47:46.893Z,1008.81
2019-05-01T08:48:46.919Z,1008.82
2019-05-01T08:49:49.598Z,1008.76
2019-05-01T08:50:46.989Z,1008.76
2019-05-01T08:51:46.991Z,1008.81
2019-05-01T08:52:48.551Z,1008.77
2019-05-01T08:53:47.039Z,1008.75
2019-05-01T08:54:47.063Z,1008.8
2019-05-01T08:55:47.187Z,1008.78
2019-05-01T08:56:47.119Z,1008.81
2019-05-01T08:57:47.136Z,1008.75
2019-05-01T08:58:49.340Z,1008.77
2019-05-01T08:59:47.185Z,1008.76
2019-05-01T09:00:47.210Z,1008.77
2019-05-01T09:01:50.535Z,1008.76
2019-05-01T09:02:47.258Z,1008.72
2019-05-01T09:03:49.617Z,1008.8
2019-05-01T09:04:47.311Z,1008.78
2019-05-01T09:05:47.331Z,1008.85
2019-05-01T09:06:47.355Z,1008.85
2019-05-01T09:07:51.077Z,1008.82
2019-05-01T09:08:47.404Z,1008.75
2019-05-01T09:09:47.576Z,1008.72
2019-05-01T09:10:49.540Z,1008.76
2019-05-01T09:11:47.478Z,1008.74
2019-05-01T09:12:48.371Z,1008.69
2019-05-01T09:13:47.525Z,1008.64
2019-05-01T09:14:47.551Z,1008.71
2019-05-01T09:15:48.207Z,1008.68
2019-05-01T09:17:47.624Z,1008.69
2019-05-01T09:18:47.649Z,1008.68
2019-05-01T09:19:47.675Z,1008.6
2019-05-01T09:20:47.698Z,1008.65
2019-05-01T09:21:47.721Z,1008.66
2019-05-01T09:22:47.747Z,1008.63
2019-05-01T09:23:51.282Z,1008.64
2019-05-01T09:24:47.794Z,1008.58
2019-05-01T09:25:47.819Z,1008.58
2019-05-01T09:26:50.080Z,1008.57
2019-05-01T09:27:47.867Z,1008.58
2019-05-01T09:28:47.892Z,1008.52
2019-05-01T09:29:51.500Z,1008.57
2019-05-01T09:30:47.940Z,1008.57
2019-05-01T09:31:47.964Z,1008.55
2019-05-01T09:33:48.013Z,1008.52
2019-05-01T09:34:48.038Z,1008.59
2019-05-01T09:35:48.061Z,1008.58
2019-05-01T09:36:48.086Z,1008.57
2019-05-01T09:37:48.108Z,1008.61
2019-05-01T09:38:50.028Z,1008.54
2019-05-01T09:39:48.161Z,1008.6
2019-05-01T09:40:48.182Z,1008.58
2019-05-01T09:41:48.813Z,1008.54
2019-05-01T09:42:48.229Z,1008.54
2019-05-01T09:43:48.253Z,1008.52
2019-05-01T09:44:48.282Z,1008.51
2019-05-01T09:45:48.301Z,1008.47
2019-05-01T09:46:48.325Z,1008.43
2019-05-01T09:47:48.349Z,1008.45
2019-05-01T09:49:48.645Z,1008.46
2019-05-01T09:50:48.423Z,1008.39
2019-05-01T09:51:49.309Z,1008.39
2019-05-01T09:52:48.469Z,1008.41
2019-05-01T09:53:48.493Z,1008.41
2019-05-01T09:54:48.517Z,1008.38
2019-05-01T09:55:48.542Z,1008.43
2019-05-01T09:56:48.569Z,1008.39
2019-05-01T09:57:48.590Z,1008.42
2019-05-01T09:58:48.615Z,1008.35
2019-05-01T09:59:48.638Z,1008.35
2019-05-01T10:00:52.558Z,1008.35
2019-05-01T10:01:48.688Z,1008.34
2019-05-01T10:02:48.713Z,1008.34
2019-05-01T10:03:49.312Z,1008.36
2019-05-01T10:05:48.787Z,1008.39
2019-05-01T10:06:52.181Z,1008.44
2019-05-01T10:07:48.837Z,1008.33
2019-05-01T10:08:48.861Z,1008.3
2019-05-01T10:09:52.052Z,1008.3
2019-05-01T10:10:48.917Z,1008.32
2019-05-01T10:11:48.936Z,1008.27
2019-05-01T10:12:48.966Z,1008.33
2019-05-01T10:13:48.987Z,1008.34
2019-05-01T10:14:49.011Z,1008.34
2019-05-01T10:15:49.037Z,1008.32
2019-05-01T10:16:49.063Z,1008.37
2019-05-01T10:17:49.088Z,1008.4
2019-05-01T10:18:49.114Z,1008.31
2019-05-01T10:20:49.166Z,1008.31
2019-05-01T10:21:49.190Z,1008.26
2019-05-01T10:22:49.217Z,1008.26
2019-05-01T10:23:51.609Z,1008.29
2019-05-01T10:24:49.268Z,1008.28
2019-05-01T10:25:49.793Z,1008.29
2019-05-01T10:26:49.319Z,1008.23
2019-05-01T10:27:49.345Z,1008.19
2019-05-01T10:28:49.937Z,1008.14
2019-05-01T10:29:49.447Z,1008.17
2019-05-01T10:30:49.423Z,1008.18
2019-05-01T10:31:49.447Z,1008.19
2019-05-01T10:32:52.729Z,1008.17
2019-05-01T10:33:49.498Z,1008.19
2019-05-01T10:34:49.530Z,1008.19
2019-05-01T10:35:49.550Z,1008.14
2019-05-01T10:36:49.733Z,1008.16
2019-05-01T10:37:49.600Z,1008.11
2019-05-01T10:38:49.627Z,1008.07
2019-05-01T10:39:50.094Z,1008.11
2019-05-01T10:40:49.677Z,1008.16
2019-05-01T10:41:49.804Z,1008.11
2019-05-01T10:42:49.728Z,1008.09
2019-05-01T10:43:49.754Z,1008.04
2019-05-01T10:44:49.777Z,1008.04
2019-05-01T10:45:49.803Z,1008.04
2019-05-01T10:46:49.828Z,1008.02
2019-05-01T10:47:49.854Z,1007.98
2019-05-01T10:48:49.879Z,1007.98
2019-05-01T10:49:49.904Z,1008.01
2019-05-01T10:50:49.929Z,1007.99
2019-05-01T10:52:49.979Z,1007.99
2019-05-01T10:53:50.004Z,1008.04
2019-05-01T10:54:50.046Z,1008.04
2019-05-01T10:55:50.054Z,1008.03
2019-05-01T10:56:50.078Z,1008
2019-05-01T10:57:50.104Z,1007.94
2019-05-01T10:58:50.127Z,1008.01
2019-05-01T10:59:50.153Z,1007.95
2019-05-01T11:00:50.178Z,1007.92
2019-05-01T11:01:50.202Z,1007.97
2019-05-01T11:02:50.226Z,1007.88
2019-05-01T11:03:50.253Z,1007.9
2019-05-01T11:04:50.281Z,1007.84
2019-05-01T11:05:55.870Z,1007.84
2019-05-01T11:06:50.325Z,1007.8
2019-05-01T11:08:50.375Z,1007.77
2019-05-01T11:09:50.398Z,1007.8
2019-05-01T11:10:50.423Z,1007.76
2019-05-01T11:11:50.448Z,1007.7
2019-05-01T11:12:50.472Z,1007.69
2019-05-01T11:13:50.498Z,1007.72
2019-05-01T11:14:50.522Z,1007.68
2019-05-01T11:15:50.546Z,1007.72
2019-05-01T11:16:50.570Z,1007.71
2019-05-01T11:17:50.595Z,1007.71
2019-05-01T11:18:50.620Z,1007.66
2019-05-01T11:19:50.644Z,1007.63
2019-05-01T11:20:50.668Z,1007.57
2019-05-01T11:21:50.692Z,1007.65
2019-05-01T11:22:50.717Z,1007.64
2019-05-01T11:24:50.766Z,1007.62
2019-05-01T11:25:50.791Z,1007.6
2019-05-01T11:26:50.816Z,1007.63
2019-05-01T11:27:50.839Z,1007.59
2019-05-01T11:28:50.864Z,1007.63
2019-05-01T11:29:50.888Z,1007.6
2019-05-01T11:30:50.913Z,1007.54
2019-05-01T11:31:50.937Z,1007.58
2019-05-01T11:32:50.961Z,1007.58
2019-05-01T11:33:50.985Z,1007.58
2019-05-01T11:34:51.011Z,1007.58
2019-05-01T11:35:51.034Z,1007.6
2019-05-01T11:36:51.058Z,1007.61
2019-05-01T11:37:51.083Z,1007.59
2019-05-01T11:38:51.106Z,1007.64
2019-05-01T11:40:51.156Z,1007.55
2019-05-01T11:41:51.180Z,1007.63
2019-05-01T11:42:51.205Z,1007.54
2019-05-01T11:43:51.228Z,1007.54
2019-05-01T11:44:51.253Z,1007.57
2019-05-01T11:45:51.276Z,1007.56
2019-05-01T11:46:51.301Z,1007.53
2019-05-01T11:47:51.426Z,1007.52
2019-05-01T11:48:51.351Z,1007.49
2019-05-01T11:49:51.373Z,1007.44
2019-05-01T11:50:51.399Z,1007.43
2019-05-01T11:51:51.421Z,1007.43
2019-05-01T11:52:51.447Z,1007.46
2019-05-01T11:53:51.471Z,1007.44
2019-05-01T11:55:51.520Z,1007.39
2019-05-01T11:56:51.543Z,1007.36
2019-05-01T11:57:51.568Z,1007.4
2019-05-01T11:58:51.593Z,1007.33
2019-05-01T11:59:51.618Z,1007.32
2019-05-01T12:00:51.641Z,1007.33
2019-05-01T12:01:51.665Z,1007.26
2019-05-01T12:02:51.689Z,1007.37
2019-05-01T12:03:51.713Z,1007.33
2019-05-01T12:04:51.737Z,1007.25
2019-05-01T12:05:51.761Z,1007.3
2019-05-01T12:06:51.786Z,1007.26
2019-05-01T12:07:51.810Z,1007.3
2019-05-01T12:08:51.834Z,1007.29
2019-05-01T12:09:51.858Z,1007.31
2019-05-01T12:10:51.884Z,1007.26
2019-05-01T12:11:51.926Z,1007.25
2019-05-01T12:12:51.931Z,1007.27
2019-05-01T12:13:51.955Z,1007.26
2019-05-01T12:14:51.982Z,1007.34
2019-05-01T12:15:52.003Z,1007.29
2019-05-01T12:16:52.027Z,1007.28
2019-05-01T12:17:52.053Z,1007.31
2019-05-01T12:18:52.077Z,1007.25
2019-05-01T12:19:52.102Z,1007.18
2019-05-01T12:20:52.125Z,1007.23
2019-05-01T12:21:52.149Z,1007.22
2019-05-01T12:22:52.173Z,1007.22
2019-05-01T12:23:52.199Z,1007.22
2019-05-01T12:24:52.223Z,1007.16
2019-05-01T12:25:52.245Z,1007.26
2019-05-01T12:27:52.294Z,1007.1
2019-05-01T12:28:52.322Z,1007.16
2019-05-01T12:29:52.347Z,1007.14
2019-05-01T12:30:52.370Z,1007.14
2019-05-01T12:31:52.391Z,1007.11
2019-05-01T12:32:52.423Z,1007.09
2019-05-01T12:33:52.439Z,1007.03
2019-05-01T12:34:52.463Z,1006.99
2019-05-01T12:35:52.487Z,1006.99
2019-05-01T12:36:52.512Z,1007.03
2019-05-01T12:37:55.183Z,1006.95
2019-05-01T12:38:52.559Z,1007.05
2019-05-01T12:39:52.585Z,1007
2019-05-01T12:40:52.607Z,1007.04
2019-05-01T12:41:52.635Z,1007.08
2019-05-01T12:43:52.680Z,1007.08
2019-05-01T12:44:52.703Z,1007.05
2019-05-01T12:45:52.728Z,1007.06
2019-05-01T12:46:52.752Z,1007.01
2019-05-01T12:47:52.780Z,1006.98
2019-05-01T12:48:52.799Z,1007
2019-05-01T12:49:52.824Z,1007.01